Welcome to the New NWS' Forecast!
Most changes are behind the scenes, but click here for differences you might notice.

Terminal Aerodrome Forecast (TAF)

Issued by National Weather Service (NWS)

                            
663 
FTUS42 KMFL 160300 AAA
TAFMIA
TAF AMD
KMIA 160300Z 1603/1706 10007KT P6SM FEW025 SCT250
     FM161500 12011KT P6SM SCT035 BKN050
     FM170200 09007KT P6SM FEW050=